sensor_id;sensor_type;location;lat;lon;timestamp;pressure;altitude;pressure_sealevel;temperature;humidity
10167;BME280;62970;53.130;8.244;2023-06-22T02:19:15;101997.06;;;16.39;55.91
10167;BME280;62970;53.130;8.244;2023-06-22T02:21:45;101988.31;;;16.39;56.54
10167;BME280;62970;53.130;8.244;2023-06-22T02:24:14;102001.50;;;16.37;57.32
10167;BME280;62970;53.130;8.244;2023-06-22T02:26:43;101998.88;;;16.37;57.25
10167;BME280;62970;53.130;8.244;2023-06-22T02:29:13;102001.50;;;16.37;57.88
10167;BME280;62970;53.130;8.244;2023-06-22T02:31:42;101999.78;;;16.36;58.24
10167;BME280;62970;53.130;8.244;2023-06-22T02:34:14;102005.03;;;16.36;58.39
10167;BME280;62970;53.130;8.244;2023-06-22T02:36:45;102004.22;;;16.34;58.75
10167;BME280;62970;53.130;8.244;2023-06-22T02:39:19;102002.50;;;16.33;58.38
10167;BME280;62970;53.130;8.244;2023-06-22T02:41:50;102002.53;;;16.32;59.00
10167;BME280;62970;53.130;8.244;2023-06-22T02:44:19;101999.06;;;16.31;59.15
10167;BME280;62970;53.130;8.244;2023-06-22T02:46:49;102007.84;;;16.30;59.03
10167;BME280;62970;53.130;8.244;2023-06-22T02:49:23;102000.91;;;16.27;58.91
10167;BME280;62970;53.130;8.244;2023-06-22T02:51:52;102003.59;;;16.26;59.03
10167;BME280;62970;53.130;8.244;2023-06-22T02:54:22;102006.25;;;16.24;59.06
10167;BME280;62970;53.130;8.244;2023-06-22T02:56:51;102005.38;;;16.24;59.17
10167;BME280;62970;53.130;8.244;2023-06-22T02:59:20;102001.94;;;16.22;59.54
10167;BME280;62970;53.130;8.244;2023-06-22T03:01:51;102010.69;;;16.22;59.75
10167;BME280;62970;53.130;8.244;2023-06-22T03:04:23;102013.41;;;16.19;59.67
10167;BME280;62970;53.130;8.244;2023-06-22T03:06:52;102009.91;;;16.19;59.69
10167;BME280;62970;53.130;8.244;2023-06-22T03:09:21;102010.81;;;16.18;59.92
10167;BME280;62970;53.130;8.244;2023-06-22T03:11:50;102006.41;;;16.18;59.88
10167;BME280;62970;53.130;8.244;2023-06-22T03:14:19;102002.94;;;16.18;60.42
10167;BME280;62970;53.130;8.244;2023-06-22T03:16:48;102009.00;;;16.20;60.05
10167;BME280;62970;53.130;8.244;2023-06-22T03:19:17;102008.09;;;16.21;60.59
10167;BME280;62970;53.130;8.244;2023-06-22T03:21:50;102004.56;;;16.22;60.24
10167;BME280;62970;53.130;8.244;2023-06-22T03:24:19;102014.19;;;16.23;60.36
10167;BME280;62970;53.130;8.244;2023-06-22T03:26:48;102015.00;;;16.25;60.61
10167;BME280;62970;53.130;8.244;2023-06-22T03:29:17;102005.31;;;16.27;60.72
10167;BME280;62970;53.130;8.244;2023-06-22T03:31:46;102010.47;;;16.30;60.78
10167;BME280;62970;53.130;8.244;2023-06-22T03:34:16;102006.91;;;16.33;60.89
10167;BME280;62970;53.130;8.244;2023-06-22T03:36:45;102012.91;;;16.38;60.80
10167;BME280;62970;53.130;8.244;2023-06-22T03:39:18;102019.81;;;16.42;61.07
10167;BME280;62970;53.130;8.244;2023-06-22T03:44:43;102014.31;;;16.49;60.54
10167;BME280;62970;53.130;8.244;2023-06-22T03:47:13;102024.69;;;16.55;61.27
10167;BME280;62970;53.130;8.244;2023-06-22T03:49:42;102027.19;;;16.60;61.18
10167;BME280;62970;53.130;8.244;2023-06-22T03:54:59;102024.25;;;16.71;61.27
10167;BME280;62970;53.130;8.244;2023-06-22T03:57:28;102030.28;;;16.74;61.17
10167;BME280;62970;53.130;8.244;2023-06-22T03:59:58;102029.34;;;16.77;61.04
10167;BME280;62970;53.130;8.244;2023-06-22T04:02:31;102034.47;;;16.81;60.68
10167;BME280;62970;53.130;8.244;2023-06-22T04:05:00;102038.75;;;16.85;61.02
10167;BME280;62970;53.130;8.244;2023-06-22T04:07:29;102036.88;;;16.89;61.34
10167;BME280;62970;53.130;8.244;2023-06-22T04:10:01;102035.00;;;16.92;60.98
10167;BME280;62970;53.130;8.244;2023-06-22T04:12:31;102036.66;;;16.97;61.12
10167;BME280;62970;53.130;8.244;2023-06-22T04:15:00;102036.50;;;17.01;61.01
10167;BME280;62970;53.130;8.244;2023-06-22T04:17:29;102041.69;;;17.04;61.13
10167;BME280;62970;53.130;8.244;2023-06-22T04:20:00;102039.75;;;17.09;61.46
10167;BME280;62970;53.130;8.244;2023-06-22T04:22:31;102038.81;;;17.12;61.36
10167;BME280;62970;53.130;8.244;2023-06-22T04:25:03;102035.25;;;17.13;60.84
10167;BME280;62970;53.130;8.244;2023-06-22T04:27:34;102024.66;;;17.14;61.08
10167;BME280;62970;53.130;8.244;2023-06-22T04:30:10;102029.91;;;17.16;60.99
10167;BME280;62970;53.130;8.244;2023-06-22T04:32:42;102032.47;;;17.17;60.65
10167;BME280;62970;53.130;8.244;2023-06-22T04:35:23;102032.38;;;17.20;61.04
10167;BME280;62970;53.130;8.244;2023-06-22T04:37:57;102037.56;;;17.23;60.77
10167;BME280;62970;53.130;8.244;2023-06-22T04:40:29;102040.03;;;17.28;60.82
10167;BME280;62970;53.130;8.244;2023-06-22T04:42:59;102037.25;;;17.33;60.57
10167;BME280;62970;53.130;8.244;2023-06-22T04:45:28;102038.03;;;17.36;60.33
10167;BME280;62970;53.130;8.244;2023-06-22T04:47:58;102039.59;;;17.43;60.91
10167;BME280;62970;53.130;8.244;2023-06-22T04:50:28;102034.94;;;17.51;60.26
10167;BME280;62970;53.130;8.244;2023-06-22T04:52:57;102034.72;;;17.58;60.72
10167;BME280;62970;53.130;8.244;2023-06-22T04:55:29;102039.69;;;17.67;60.19
10167;BME280;62970;53.130;8.244;2023-06-22T04:57:59;102037.59;;;17.76;60.59
10167;BME280;62970;53.130;8.244;2023-06-22T05:03:06;102028.13;;;17.97;60.13
10167;BME280;62970;53.130;8.244;2023-06-22T05:05:37;102030.13;;;18.15;60.30
10167;BME280;62970;53.130;8.244;2023-06-22T05:08:06;102028.78;;;18.29;59.92
10167;BME280;62970;53.130;8.244;2023-06-22T05:10:38;102025.75;;;18.39;59.55
10167;BME280;62970;53.130;8.244;2023-06-22T05:13:07;102024.50;;;18.49;59.25
10167;BME280;62970;53.130;8.244;2023-06-22T05:15:37;102022.31;;;18.61;59.17
10167;BME280;62970;53.130;8.244;2023-06-22T05:18:06;102022.03;;;18.68;59.00
10167;BME280;62970;53.130;8.244;2023-06-22T05:20:37;102025.47;;;18.70;58.66
10167;BME280;62970;53.130;8.244;2023-06-22T05:23:07;102019.22;;;18.73;58.44
10167;BME280;62970;53.130;8.244;2023-06-22T05:25:39;102022.66;;;18.75;58.92
10167;BME280;62970;53.130;8.244;2023-06-22T05:28:08;102026.09;;;18.77;58.49
10167;BME280;62970;53.130;8.244;2023-06-22T05:30:38;102025.25;;;18.76;58.52
10167;BME280;62970;53.130;8.244;2023-06-22T05:33:07;102021.75;;;18.76;58.08
10167;BME280;62970;53.130;8.244;2023-06-22T05:35:37;102018.88;;;18.82;58.85
10167;BME280;62970;53.130;8.244;2023-06-22T05:38:07;102010.75;;;19.10;58.79
10167;BME280;62970;53.130;8.244;2023-06-22T05:40:39;102020.16;;;19.39;58.16
10167;BME280;62970;53.130;8.244;2023-06-22T05:43:08;102014.81;;;19.83;58.06
10167;BME280;62970;53.130;8.244;2023-06-22T05:45:38;102012.56;;;20.33;57.33
10167;BME280;62970;53.130;8.244;2023-06-22T05:48:08;102017.25;;;20.86;56.14
10167;BME280;62970;53.130;8.244;2023-06-22T05:50:37;102015.53;;;21.40;55.59
10167;BME280;62970;53.130;8.244;2023-06-22T05:53:06;102022.84;;;22.05;54.70
10167;BME280;62970;53.130;8.244;2023-06-22T05:55:38;102010.28;;;22.57;53.42
10167;BME280;62970;53.130;8.244;2023-06-22T05:58:08;102012.16;;;23.04;52.15
10167;BME280;62970;53.130;8.244;2023-06-22T06:00:39;102012.53;;;23.44;51.63
10167;BME280;62970;53.130;8.244;2023-06-22T06:03:09;102010.66;;;23.76;50.74
10167;BME280;62970;53.130;8.244;2023-06-22T06:05:38;102010.16;;;24.13;50.39
10167;BME280;62970;53.130;8.244;2023-06-22T06:08:09;102009.88;;;24.46;49.54
10167;BME280;62970;53.130;8.244;2023-06-22T06:10:43;102011.53;;;24.90;49.48
10167;BME280;62970;53.130;8.244;2023-06-22T06:13:14;102008.34;;;25.39;47.98
10167;BME280;62970;53.130;8.244;2023-06-22T06:15:44;102011.00;;;25.78;47.16
10167;BME280;62970;53.130;8.244;2023-06-22T06:18:14;102013.09;;;26.13;46.58
10167;BME280;62970;53.130;8.244;2023-06-22T06:20:43;102006.34;;;26.46;45.60
10167;BME280;62970;53.130;8.244;2023-06-22T06:23:12;102004.50;;;26.59;45.17
10167;BME280;62970;53.130;8.244;2023-06-22T06:25:44;101999.75;;;26.75;44.70
10167;BME280;62970;53.130;8.244;2023-06-22T06:28:13;101999.75;;;26.99;44.78
10167;BME280;62970;53.130;8.244;2023-06-22T06:30:42;101997.34;;;27.20;44.64
10167;BME280;62970;53.130;8.244;2023-06-22T06:33:13;101996.00;;;27.49;43.11
10167;BME280;62970;53.130;8.244;2023-06-22T06:35:44;101995.81;;;27.63;42.89
10167;BME280;62970;53.130;8.244;2023-06-22T06:38:14;102003.75;;;27.65;42.78
10167;BME280;62970;53.130;8.244;2023-06-22T06:40:45;102006.28;;;27.66;42.50
10167;BME280;62970;53.130;8.244;2023-06-22T06:43:15;102002.44;;;27.82;42.39
10167;BME280;62970;53.130;8.244;2023-06-22T06:45:44;102004.78;;;28.09;41.85
10167;BME280;62970;53.130;8.244;2023-06-22T06:48:13;102009.84;;;28.36;41.45
10167;BME280;62970;53.130;8.244;2023-06-22T06:50:43;102008.88;;;28.70;40.45
10167;BME280;62970;53.130;8.244;2023-06-22T06:53:13;102010.53;;;28.93;39.95
10167;BME280;62970;53.130;8.244;2023-06-22T06:55:45;101999.66;;;28.95;39.56
10167;BME280;62970;53.130;8.244;2023-06-22T06:58:14;102005.38;;;29.02;39.30
10167;BME280;62970;53.130;8.244;2023-06-22T07:00:43;102004.66;;;29.00;38.64
10167;BME280;62970;53.130;8.244;2023-06-22T07:03:13;102006.72;;;28.96;38.21
10167;BME280;62970;53.130;8.244;2023-06-22T07:05:42;102009.53;;;28.94;37.54
10167;BME280;62970;53.130;8.244;2023-06-22T07:08:11;102003.78;;;28.99;37.76
10167;BME280;62970;53.130;8.244;2023-06-22T07:10:45;102007.16;;;29.12;37.60
10167;BME280;62970;53.130;8.244;2023-06-22T07:13:14;102010.56;;;29.25;37.47
10167;BME280;62970;53.130;8.244;2023-06-22T07:15:44;102000.50;;;29.39;37.60
10167;BME280;62970;53.130;8.244;2023-06-22T07:18:13;101995.91;;;29.71;36.94
10167;BME280;62970;53.130;8.244;2023-06-22T07:20:43;102005.16;;;29.99;36.91
10167;BME280;62970;53.130;8.244;2023-06-22T07:23:12;102005.09;;;30.10;36.01
10167;BME280;62970;53.130;8.244;2023-06-22T07:25:41;101997.06;;;30.20;35.87
10167;BME280;62970;53.130;8.244;2023-06-22T07:28:12;101996.66;;;30.24;35.53
10167;BME280;62970;53.130;8.244;2023-06-22T07:30:41;101995.88;;;30.34;34.87
10167;BME280;62970;53.130;8.244;2023-06-22T07:33:11;101989.94;;;30.40;34.85
10167;BME280;62970;53.130;8.244;2023-06-22T07:35:40;101994.22;;;30.52;34.79
10167;BME280;62970;53.130;8.244;2023-06-22T07:38:10;101987.75;;;30.64;34.61
10167;BME280;62970;53.130;8.244;2023-06-22T07:40:40;101982.38;;;30.64;33.53
10167;BME280;62970;53.130;8.244;2023-06-22T07:43:12;101984.34;;;30.62;33.75
10167;BME280;62970;53.130;8.244;2023-06-22T07:45:48;101978.38;;;30.59;33.98
10167;BME280;62970;53.130;8.244;2023-06-22T07:48:20;101983.50;;;30.71;33.46
10167;BME280;62970;53.130;8.244;2023-06-22T07:50:50;101985.31;;;30.92;32.90
10167;BME280;62970;53.130;8.244;2023-06-22T07:53:20;101991.81;;;30.99;32.72
10167;BME280;62970;53.130;8.244;2023-06-22T07:55:49;101988.00;;;31.11;32.40
10167;BME280;62970;53.130;8.244;2023-06-22T07:58:21;101976.66;;;31.07;32.61
10167;BME280;62970;53.130;8.244;2023-06-22T08:00:51;101972.00;;;31.09;32.01
10167;BME280;62970;53.130;8.244;2023-06-22T08:03:20;101970.28;;;31.18;32.11
10167;BME280;62970;53.130;8.244;2023-06-22T08:05:49;101969.56;;;31.26;32.40
10167;BME280;62970;53.130;8.244;2023-06-22T08:08:18;101959.81;;;31.34;31.78
10167;BME280;62970;53.130;8.244;2023-06-22T08:10:50;101953.84;;;31.40;32.10
10167;BME280;62970;53.130;8.244;2023-06-22T08:13:22;101963.47;;;31.53;31.85
10167;BME280;62970;53.130;8.244;2023-06-22T08:15:51;101951.69;;;31.63;31.63
10167;BME280;62970;53.130;8.244;2023-06-22T08:18:20;101951.41;;;31.57;31.17
10167;BME280;62970;53.130;8.244;2023-06-22T08:20:50;101950.72;;;31.55;31.07
10167;BME280;62970;53.130;8.244;2023-06-22T08:23:19;101950.56;;;31.56;31.08
10167;BME280;62970;53.130;8.244;2023-06-22T08:25:48;101950.56;;;31.56;31.26
10167;BME280;62970;53.130;8.244;2023-06-22T08:28:20;101959.38;;;31.48;30.88
10167;BME280;62970;53.130;8.244;2023-06-22T08:30:50;101946.19;;;31.45;30.52
10167;BME280;62970;53.130;8.244;2023-06-22T08:33:21;101953.59;;;31.34;31.05
10167;BME280;62970;53.130;8.244;2023-06-22T08:35:54;101943.63;;;31.25;31.05
10167;BME280;62970;53.130;8.244;2023-06-22T08:38:24;101951.56;;;31.26;30.99
10167;BME280;62970;53.130;8.244;2023-06-22T08:43:39;101951.00;;;31.23;31.00
10167;BME280;62970;53.130;8.244;2023-06-22T08:46:10;101948.31;;;30.94;31.23
10167;BME280;62970;53.130;8.244;2023-06-22T08:48:39;101941.72;;;30.58;30.78
10167;BME280;62970;53.130;8.244;2023-06-22T08:51:08;101940.84;;;30.17;31.20
10167;BME280;62970;53.130;8.244;2023-06-22T08:53:40;101953.66;;;29.73;32.09
10167;BME280;62970;53.130;8.244;2023-06-22T08:56:11;101943.31;;;29.27;32.24
10167;BME280;62970;53.130;8.244;2023-06-22T08:58:43;101935.63;;;28.90;32.57
10167;BME280;62970;53.130;8.244;2023-06-22T09:01:12;101938.00;;;28.61;32.88
10167;BME280;62970;53.130;8.244;2023-06-22T09:03:41;101942.34;;;28.30;33.52
10167;BME280;62970;53.130;8.244;2023-06-22T09:06:19;101936.44;;;28.03;33.84
10167;BME280;62970;53.130;8.244;2023-06-22T09:08:49;101938.25;;;27.80;34.42
10167;BME280;62970;53.130;8.244;2023-06-22T09:11:18;101946.88;;;27.61;34.46
10167;BME280;62970;53.130;8.244;2023-06-22T09:13:50;101934.53;;;27.48;34.48
10167;BME280;62970;53.130;8.244;2023-06-22T09:16:20;101934.25;;;27.39;34.94
10167;BME280;62970;53.130;8.244;2023-06-22T09:18:49;101931.19;;;27.33;35.21
10167;BME280;62970;53.130;8.244;2023-06-22T09:21:19;101930.69;;;27.28;35.74
10167;BME280;62970;53.130;8.244;2023-06-22T09:23:48;101920.69;;;27.19;35.31
10167;BME280;62970;53.130;8.244;2023-06-22T09:26:17;101915.31;;;27.07;35.70
10167;BME280;62970;53.130;8.244;2023-06-22T09:28:50;101912.78;;;26.93;35.44
10167;BME280;62970;53.130;8.244;2023-06-22T09:31:19;101912.72;;;26.82;35.56
10167;BME280;62970;53.130;8.244;2023-06-22T09:33:52;101898.34;;;26.72;35.69
10167;BME280;62970;53.130;8.244;2023-06-22T09:36:22;101900.84;;;26.62;36.43
10167;BME280;62970;53.130;8.244;2023-06-22T09:38:51;101896.16;;;26.53;36.29
10167;BME280;62970;53.130;8.244;2023-06-22T09:41:21;101893.72;;;26.50;36.48
10167;BME280;62970;53.130;8.244;2023-06-22T09:43:53;101889.69;;;26.44;36.80
10167;BME280;62970;53.130;8.244;2023-06-22T09:46:23;101896.19;;;26.40;36.60
10167;BME280;62970;53.130;8.244;2023-06-22T09:48:53;101893.00;;;26.35;36.60
10167;BME280;62970;53.130;8.244;2023-06-22T09:51:23;101896.00;;;26.31;36.98
10167;BME280;62970;53.130;8.244;2023-06-22T09:53:52;101892.69;;;26.27;36.81
10167;BME280;62970;53.130;8.244;2023-06-22T09:56:22;101882.84;;;26.28;37.22
10167;BME280;62970;53.130;8.244;2023-06-22T09:58:57;101880.81;;;26.31;36.88
10167;BME280;62970;53.130;8.244;2023-06-22T10:01:26;101883.25;;;26.34;37.24
10167;BME280;62970;53.130;8.244;2023-06-22T10:03:56;101882.06;;;26.38;36.84
10167;BME280;62970;53.130;8.244;2023-06-22T10:06:25;101871.25;;;26.40;36.76
10167;BME280;62970;53.130;8.244;2023-06-22T10:08:54;101873.19;;;26.38;36.69
10167;BME280;62970;53.130;8.244;2023-06-22T10:11:23;101875.75;;;26.39;36.74
10167;BME280;62970;53.130;8.244;2023-06-22T10:13:59;101870.53;;;26.38;36.61
10167;BME280;62970;53.130;8.244;2023-06-22T10:16:31;101859.94;;;26.36;36.71
10167;BME280;62970;53.130;8.244;2023-06-22T10:19:01;101865.19;;;26.38;36.85
10167;BME280;62970;53.130;8.244;2023-06-22T10:21:31;101859.09;;;26.36;36.84
10167;BME280;62970;53.130;8.244;2023-06-22T10:24:02;101863.47;;;26.37;36.85
10167;BME280;62970;53.130;8.244;2023-06-22T10:26:32;101866.78;;;26.40;36.99
10167;BME280;62970;53.130;8.244;2023-06-22T10:29:04;101866.66;;;26.42;36.34
10167;BME280;62970;53.130;8.244;2023-06-22T10:31:33;101862.41;;;26.39;36.60
10167;BME280;62970;53.130;8.244;2023-06-22T10:34:02;101854.38;;;26.39;36.82
10167;BME280;62970;53.130;8.244;2023-06-22T10:36:32;101852.38;;;26.43;36.55
10167;BME280;62970;53.130;8.244;2023-06-22T10:39:01;101852.88;;;26.48;36.55
10167;BME280;62970;53.130;8.244;2023-06-22T10:41:31;101845.81;;;26.47;36.59
10167;BME280;62970;53.130;8.244;2023-06-22T10:44:04;101844.22;;;26.44;36.73
10167;BME280;62970;53.130;8.244;2023-06-22T10:46:33;101848.59;;;26.46;36.68
10167;BME280;62970;53.130;8.244;2023-06-22T10:49:03;101848.59;;;26.46;36.92
10167;BME280;62970;53.130;8.244;2023-06-22T10:51:32;101844.75;;;26.50;36.98
10167;BME280;62970;53.130;8.244;2023-06-22T10:54:02;101847.59;;;26.59;37.22
10167;BME280;62970;53.130;8.244;2023-06-22T10:56:31;101846.16;;;26.66;36.94
10167;BME280;62970;53.130;8.244;2023-06-22T10:59:00;101839.09;;;26.65;36.85
10167;BME280;62970;53.130;8.244;2023-06-22T11:01:31;101837.28;;;26.66;36.56
10167;BME280;62970;53.130;8.244;2023-06-22T11:04:03;101831.34;;;26.73;36.69
10167;BME280;62970;53.130;8.244;2023-06-22T11:06:32;101823.84;;;26.79;37.25
10167;BME280;62970;53.130;8.244;2023-06-22T11:09:02;101832.97;;;26.87;36.73
10167;BME280;62970;53.130;8.244;2023-06-22T11:11:31;101825.47;;;26.92;36.53
10167;BME280;62970;53.130;8.244;2023-06-22T11:14:00;101826.94;;;26.96;36.95
10167;BME280;62970;53.130;8.244;2023-06-22T11:16:32;101817.09;;;26.97;36.58
10167;BME280;62970;53.130;8.244;2023-06-22T11:19:01;101830.34;;;26.98;36.48
10167;BME280;62970;53.130;8.244;2023-06-22T11:21:31;101817.94;;;26.97;36.20
10167;BME280;62970;53.130;8.244;2023-06-22T11:24:00;101814.28;;;26.98;36.33
10167;BME280;62970;53.130;8.244;2023-06-22T11:26:29;101813.31;;;26.99;36.58
10167;BME280;62970;53.130;8.244;2023-06-22T11:28:59;101813.84;;;27.04;36.28
10167;BME280;62970;53.130;8.244;2023-06-22T11:31:34;101808.88;;;27.11;36.06
10167;BME280;62970;53.130;8.244;2023-06-22T11:34:04;101814.00;;;27.14;36.25
10167;BME280;62970;53.130;8.244;2023-06-22T11:36:34;101799.88;;;27.12;36.04
10167;BME280;62970;53.130;8.244;2023-06-22T11:39:04;101797.78;;;27.04;35.72
10167;BME280;62970;53.130;8.244;2023-06-22T11:41:35;101800.28;;;26.95;35.89
10167;BME280;62970;53.130;8.244;2023-06-22T11:44:04;101797.13;;;26.90;36.56
10167;BME280;62970;53.130;8.244;2023-06-22T11:46:36;101784.84;;;26.87;36.35
10167;BME280;62970;53.130;8.244;2023-06-22T11:49:05;101797.25;;;26.88;36.58
10167;BME280;62970;53.130;8.244;2023-06-22T11:51:35;101795.19;;;26.92;36.40
10167;BME280;62970;53.130;8.244;2023-06-22T11:54:04;101794.59;;;26.99;36.37
10167;BME280;62970;53.130;8.244;2023-06-22T11:56:33;101800.00;;;27.11;36.41
10167;BME280;62970;53.130;8.244;2023-06-22T11:59:02;101798.31;;;27.21;36.08
10167;BME280;62970;53.130;8.244;2023-06-22T12:01:32;101799.41;;;27.29;36.00
10167;BME280;62970;53.130;8.244;2023-06-22T12:04:04;101797.09;;;27.36;36.59
10167;BME280;62970;53.130;8.244;2023-06-22T12:06:40;101794.91;;;27.41;36.08
10167;BME280;62970;53.130;8.244;2023-06-22T12:09:09;101796.00;;;27.50;36.49
10167;BME280;62970;53.130;8.244;2023-06-22T12:11:39;101791.78;;;27.58;35.82
10167;BME280;62970;53.130;8.244;2023-06-22T12:14:08;101790.56;;;27.62;35.99
10167;BME280;62970;53.130;8.244;2023-06-22T12:16:38;101773.66;;;27.62;36.36
10167;BME280;62970;53.130;8.244;2023-06-22T12:19:10;101775.09;;;27.66;35.89
10167;BME280;62970;53.130;8.244;2023-06-22T12:21:39;101772.31;;;27.67;36.17
10167;BME280;62970;53.130;8.244;2023-06-22T12:24:11;101767.69;;;27.69;36.15
10167;BME280;62970;53.130;8.244;2023-06-22T12:26:40;101766.94;;;27.67;35.79
10167;BME280;62970;53.130;8.244;2023-06-22T12:29:10;101767.06;;;27.66;35.94
10167;BME280;62970;53.130;8.244;2023-06-22T12:31:39;101767.91;;;27.66;36.39
10167;BME280;62970;53.130;8.244;2023-06-22T12:34:11;101765.72;;;27.60;36.01
10167;BME280;62970;53.130;8.244;2023-06-22T12:36:40;101752.81;;;27.54;36.12
10167;BME280;62970;53.130;8.244;2023-06-22T12:39:10;101745.25;;;27.48;36.18
10167;BME280;62970;53.130;8.244;2023-06-22T12:41:39;101744.66;;;27.45;36.10
10167;BME280;62970;53.130;8.244;2023-06-22T12:44:08;101740.53;;;27.40;36.86
10167;BME280;62970;53.130;8.244;2023-06-22T12:46:37;101729.22;;;27.37;36.65
10167;BME280;62970;53.130;8.244;2023-06-22T12:49:09;101726.28;;;27.40;36.39
10167;BME280;62970;53.130;8.244;2023-06-22T12:51:40;101723.84;;;27.37;37.01
10167;BME280;62970;53.130;8.244;2023-06-22T12:54:11;101715.34;;;27.32;36.83
10167;BME280;62970;53.130;8.244;2023-06-22T12:56:40;101717.28;;;27.30;36.61
10167;BME280;62970;53.130;8.244;2023-06-22T12:59:09;101716.56;;;27.28;37.15
10167;BME280;62970;53.130;8.244;2023-06-22T13:01:39;101711.06;;;27.29;36.85
10167;BME280;62970;53.130;8.244;2023-06-22T13:04:12;101717.78;;;27.35;37.52
10167;BME280;62970;53.130;8.244;2023-06-22T13:06:42;101710.69;;;27.45;37.08
10167;BME280;62970;53.130;8.244;2023-06-22T13:09:14;101706.09;;;27.58;36.93
10167;BME280;62970;53.130;8.244;2023-06-22T13:11:44;101714.56;;;27.75;36.84
10167;BME280;62970;53.130;8.244;2023-06-22T13:14:13;101710.28;;;27.83;36.55
10167;BME280;62970;53.130;8.244;2023-06-22T13:16:42;101708.81;;;27.90;36.86
10167;BME280;62970;53.130;8.244;2023-06-22T13:19:14;101712.81;;;27.96;36.29
10167;BME280;62970;53.130;8.244;2023-06-22T13:21:44;101713.41;;;27.99;36.38
10167;BME280;62970;53.130;8.244;2023-06-22T13:24:13;101716.69;;;28.03;36.15
10167;BME280;62970;53.130;8.244;2023-06-22T13:26:42;101700.22;;;28.08;36.50
10167;BME280;62970;53.130;8.244;2023-06-22T13:29:11;101704.22;;;28.13;36.33
10167;BME280;62970;53.130;8.244;2023-06-22T13:31:41;101698.78;;;28.15;35.83
10167;BME280;62970;53.130;8.244;2023-06-22T13:34:12;101706.06;;;28.13;36.38
10167;BME280;62970;53.130;8.244;2023-06-22T13:36:41;101702.66;;;28.11;36.19
10167;BME280;62970;53.130;8.244;2023-06-22T13:39:12;101705.00;;;28.04;36.53
10167;BME280;62970;53.130;8.244;2023-06-22T13:41:41;101698.69;;;27.94;35.99
10167;BME280;62970;53.130;8.244;2023-06-22T13:44:10;101699.44;;;27.85;36.21
10167;BME280;62970;53.130;8.244;2023-06-22T13:46:39;101704.47;;;27.78;36.45
10167;BME280;62970;53.130;8.244;2023-06-22T13:49:08;101694.00;;;27.75;36.62
10167;BME280;62970;53.130;8.244;2023-06-22T13:51:40;101703.88;;;27.75;36.82
10167;BME280;62970;53.130;8.244;2023-06-22T13:54:12;101694.59;;;27.79;36.67
10167;BME280;62970;53.130;8.244;2023-06-22T13:56:41;101698.84;;;27.81;36.41
10167;BME280;62970;53.130;8.244;2023-06-22T13:59:10;101693.63;;;27.80;36.60
10167;BME280;62970;53.130;8.244;2023-06-22T14:01:39;101694.97;;;27.74;36.29
10167;BME280;62970;53.130;8.244;2023-06-22T14:04:09;101691.22;;;27.65;36.75
10167;BME280;62970;53.130;8.244;2023-06-22T14:06:41;101683.69;;;27.59;36.60
10167;BME280;62970;53.130;8.244;2023-06-22T14:09:10;101684.03;;;27.55;37.32
10167;BME280;62970;53.130;8.244;2023-06-22T14:11:40;101679.19;;;27.49;37.44
10167;BME280;62970;53.130;8.244;2023-06-22T14:14:09;101675.41;;;27.40;38.08
10167;BME280;62970;53.130;8.244;2023-06-22T14:16:39;101668.25;;;27.29;38.35
10167;BME280;62970;53.130;8.244;2023-06-22T14:19:08;101669.59;;;27.13;38.91
10167;BME280;62970;53.130;8.244;2023-06-22T14:21:37;101667.25;;;26.97;39.37
10167;BME280;62970;53.130;8.244;2023-06-22T14:24:09;101656.06;;;26.81;39.44
10167;BME280;62970;53.130;8.244;2023-06-22T14:26:38;101653.38;;;26.69;40.49
10167;BME280;62970;53.130;8.244;2023-06-22T14:29:07;101661.13;;;26.61;40.58
10167;BME280;62970;53.130;8.244;2023-06-22T14:31:36;101659.78;;;26.56;41.16
10167;BME280;62970;53.130;8.244;2023-06-22T14:34:05;101663.78;;;26.50;41.22
10167;BME280;62970;53.130;8.244;2023-06-22T14:36:35;101659.13;;;26.41;41.76
10167;BME280;62970;53.130;8.244;2023-06-22T14:39:04;101658.34;;;26.28;42.24
10167;BME280;62970;53.130;8.244;2023-06-22T14:41:36;101653.16;;;26.02;42.62
10167;BME280;62970;53.130;8.244;2023-06-22T14:44:05;101656.78;;;25.77;42.99
10167;BME280;62970;53.130;8.244;2023-06-22T14:46:35;101656.97;;;25.50;43.12
10167;BME280;62970;53.130;8.244;2023-06-22T14:49:04;101656.06;;;25.26;43.44
10167;BME280;62970;53.130;8.244;2023-06-22T14:51:33;101652.97;;;25.07;44.23
10167;BME280;62970;53.130;8.244;2023-06-22T14:54:02;101645.72;;;24.96;44.19
10167;BME280;62970;53.130;8.244;2023-06-22T14:56:38;101635.72;;;24.87;45.08
10167;BME280;62970;53.130;8.244;2023-06-22T14:59:07;101632.94;;;24.76;45.25
10167;BME280;62970;53.130;8.244;2023-06-22T15:01:37;101641.78;;;24.64;45.54
10167;BME280;62970;53.130;8.244;2023-06-22T15:04:08;101639.09;;;24.51;45.56
10167;BME280;62970;53.130;8.244;2023-06-22T15:06:37;101630.13;;;24.39;46.46
10167;BME280;62970;53.130;8.244;2023-06-22T15:09:06;101630.00;;;24.28;46.60
10167;BME280;62970;53.130;8.244;2023-06-22T15:11:38;101627.41;;;24.14;46.64
10167;BME280;62970;53.130;8.244;2023-06-22T15:14:07;101621.31;;;23.99;46.96
10167;BME280;62970;53.130;8.244;2023-06-22T15:16:37;101624.22;;;23.82;47.36
10167;BME280;62970;53.130;8.244;2023-06-22T15:19:06;101620.75;;;23.67;47.99
10167;BME280;62970;53.130;8.244;2023-06-22T15:21:35;101625.06;;;23.55;48.07
10167;BME280;62970;53.130;8.244;2023-06-22T15:24:05;101618.72;;;23.44;48.86
10167;BME280;62970;53.130;8.244;2023-06-22T15:26:37;101610.59;;;23.33;48.95
10167;BME280;62970;53.130;8.244;2023-06-22T15:29:06;101610.47;;;23.20;49.34
10167;BME280;62970;53.130;8.244;2023-06-22T15:31:35;101604.31;;;23.05;49.58
10167;BME280;62970;53.130;8.244;2023-06-22T15:34:04;101598.03;;;22.92;50.10